Time;durP1;ratioP1;P1;durP2;ratioP2;P2;SDS_P1;SDS_P2;PMS_P1;PMS_P2;Temp;Humidity;BMP_temperature;BMP_pressure;BME280_temperature;BME280_humidity;BME280_pressure;Samples;Min_cycle;Max_cycle;Signal;HPM_P1;HPM_P2
2021/03/11 00:00:51;;;;;;;4.15;1.67;;;;;;;30.38;27.46;97908.28;5014432;28;20231;-69
2021/03/11 00:03:19;;;;;;;1.95;1.40;;;;;;;29.96;28.25;97899.97;5014363;28;20230;-67
2021/03/11 00:05:45;;;;;;;2.95;1.30;;;;;;;31.03;26.67;97904.97;5014505;28;20311;-68
2021/03/11 00:08:12;;;;;;;3.22;1.48;;;;;;;30.38;27.64;97903.69;5014473;28;20201;-67
2021/03/11 00:10:39;;;;;;;2.78;1.30;;;;;;;30.02;27.98;97899.09;5014216;28;20319;-68
2021/03/11 00:13:09;;;;;;;3.92;1.48;;;;;;;31.51;26.73;97890.56;5014490;28;20274;-68
2021/03/11 00:15:37;;;;;;;1.77;1.23;;;;;;;30.58;27.23;97892.66;5014051;28;20315;-68
2021/03/11 00:18:04;;;;;;;1.95;0.85;;;;;;;30.10;27.74;97890.72;5014276;28;20295;-69
2021/03/11 00:20:31;;;;;;;1.67;1.20;;;;;;;31.28;26.16;97891.31;5013893;28;20323;-68
2021/03/11 00:22:57;;;;;;;5.40;1.27;;;;;;;30.78;26.80;97888.91;5013903;28;20299;-68
2021/03/11 00:25:27;;;;;;;2.25;1.17;;;;;;;30.15;27.99;97893.56;5013552;28;20335;-68
2021/03/11 00:27:53;;;;;;;1.15;1.00;;;;;;;30.24;27.68;97894.91;5013544;28;20295;-68
2021/03/11 00:30:22;;;;;;;2.50;1.20;;;;;;;30.93;26.98;97889.28;5013751;28;20620;-69
2021/03/11 00:32:49;;;;;;;2.65;1.40;;;;;;;30.35;27.46;97887.13;5014040;28;20299;-68
2021/03/11 00:35:15;;;;;;;3.80;1.10;;;;;;;29.84;28.15;97897.19;5013902;28;20303;-67
2021/03/11 00:37:43;;;;;;;1.50;1.02;;;;;;;31.22;26.04;97892.22;5014005;28;20689;-68
2021/03/11 00:40:12;;;;;;;1.73;1.30;;;;;;;30.46;27.34;97889.09;5014068;28;20282;-68
2021/03/11 00:42:38;;;;;;;4.40;1.10;;;;;;;30.05;27.87;97898.66;5013725;28;20326;-68
2021/03/11 00:45:06;;;;;;;3.25;1.35;;;;;;;31.43;26.40;97885.47;5013595;28;20374;-67
2021/03/11 00:47:34;;;;;;;1.95;1.17;;;;;;;30.44;27.49;97883.09;5013461;28;20365;-68
2021/03/11 00:50:00;;;;;;;2.28;1.02;;;;;;;30.04;28.09;97883.50;5013029;28;20680;-68
2021/03/11 00:52:26;;;;;;;1.20;0.90;;;;;;;30.87;26.71;97882.09;5013780;28;20221;-68
2021/03/11 00:54:52;;;;;;;2.03;1.20;;;;;;;30.75;27.01;97881.25;5013575;28;20311;-67
2021/03/11 00:57:18;;;;;;;1.83;1.25;;;;;;;30.14;27.86;97883.81;5013472;28;20315;-68
2021/03/11 00:59:45;;;;;;;2.10;1.52;;;;;;;30.05;27.93;97883.28;5013549;28;20235;-68
2021/03/11 01:02:11;;;;;;;1.40;1.02;;;;;;;30.93;27.26;97883.91;5013930;28;20300;-68
2021/03/11 01:04:38;;;;;;;2.35;1.00;;;;;;;30.42;27.54;97898.69;5013284;28;20710;-67
2021/03/11 01:07:04;;;;;;;2.08;1.15;;;;;;;29.99;28.03;97891.44;5013269;28;20213;-69
2021/03/11 01:09:31;;;;;;;4.07;1.40;;;;;;;31.32;26.18;97884.38;5013347;28;20613;-67
2021/03/11 01:11:57;;;;;;;2.22;1.10;;;;;;;30.42;27.12;97887.88;5013360;28;20644;-68
2021/03/11 01:14:23;;;;;;;2.88;1.10;;;;;;;30.10;27.79;97879.13;5013031;28;20324;-68
2021/03/11 01:16:50;;;;;;;4.10;1.17;;;;;;;31.32;26.89;97875.47;5012831;28;20563;-68
2021/03/11 01:19:16;;;;;;;2.28;1.20;;;;;;;30.72;26.71;97876.31;5012886;28;20612;-68
2021/03/11 01:21:43;;;;;;;2.53;1.45;;;;;;;30.20;27.57;97871.31;5012779;28;20652;-68
2021/03/11 01:24:09;;;;;;;2.50;1.00;;;;;;;30.17;27.75;97859.09;5013027;28;20323;-67
2021/03/11 01:26:36;;;;;;;2.88;1.27;;;;;;;31.03;26.74;97858.25;5013111;28;20208;-68
2021/03/11 01:29:02;;;;;;;3.00;1.25;;;;;;;30.30;27.52;97846.53;5012821;28;20233;-68
2021/03/11 01:31:29;;;;;;;1.95;1.20;;;;;;;29.87;28.03;97843.66;5012430;28;20204;-68
2021/03/11 01:33:55;;;;;;;2.35;1.00;;;;;;;31.27;26.36;97835.63;5011961;28;20292;-67
2021/03/11 01:36:21;;;;;;;1.45;1.02;;;;;;;30.51;27.27;97821.81;5011853;28;20402;-67
2021/03/11 01:38:48;;;;;;;1.92;1.20;;;;;;;30.09;27.89;97818.97;5012357;28;20710;-68
2021/03/11 01:41:14;;;;;;;2.25;1.15;;;;;;;31.27;26.84;97803.22;5012261;28;20233;-67
2021/03/11 01:43:40;;;;;;;2.92;0.82;;;;;;;30.68;27.17;97794.16;5012716;28;20703;-68
2021/03/11 01:46:07;;;;;;;2.95;1.33;;;;;;;30.32;27.49;97785.09;5012429;28;20240;-68
2021/03/11 01:48:33;;;;;;;2.00;1.20;;;;;;;29.89;28.11;97779.59;5012590;28;20662;-68
2021/03/11 01:50:59;;;;;;;2.22;1.33;;;;;;;29.37;28.50;97768.31;5012492;28;20347;-68
2021/03/11 01:53:25;;;;;;;2.25;1.20;;;;;;;31.61;26.47;97757.56;5012126;28;20304;-68
2021/03/11 01:55:52;;;;;;;1.98;1.27;;;;;;;31.36;26.41;97755.91;5012443;28;20307;-68
2021/03/11 01:58:18;;;;;;;2.58;1.33;;;;;;;30.57;27.02;97756.13;5012618;28;20288;-68
2021/03/11 02:00:45;;;;;;;1.55;1.00;;;;;;;31.49;25.72;97752.16;5012687;28;20332;-68
2021/03/11 02:03:11;;;;;;;1.80;1.02;;;;;;;31.05;26.86;97750.84;5012386;28;20291;-68
2021/03/11 02:05:37;;;;;;;1.88;1.02;;;;;;;30.62;26.98;97731.97;5012401;28;20773;-68
2021/03/11 02:08:04;;;;;;;2.53;1.23;;;;;;;31.38;26.53;97727.81;5011502;28;20209;-67
2021/03/11 02:10:30;;;;;;;1.83;1.13;;;;;;;30.93;26.92;97732.72;5011748;28;20283;-67
2021/03/11 02:13:19;;;;;;;3.13;1.30;;;;;;;30.42;27.16;97702.59;5011683;28;20596;-66
2021/03/11 02:15:52;;;;;;;2.35;1.00;;;;;;;30.89;27.15;97707.25;5011434;28;20311;-67
2021/03/11 02:18:26;;;;;;;3.90;1.40;;;;;;;30.65;27.28;97694.81;5011821;28;20569;-65
2021/03/11 02:21:03;;;;;;;2.42;1.05;;;;;;;30.25;27.77;97694.31;5011542;28;20316;-68
2021/03/11 02:24:11;;;;;;;2.13;1.10;;;;;;;31.06;26.34;97687.69;5011921;28;20504;-67
2021/03/11 02:26:54;;;;;;;2.35;1.40;;;;;;;30.82;26.84;97682.25;4949820;28;20199;-68
2021/03/11 02:29:26;;;;;;;2.28;1.20;;;;;;;30.28;27.45;97674.16;4950837;29;20206;-65
2021/03/11 02:31:56;;;;;;;2.70;1.38;;;;;;;30.69;27.41;97666.28;4990386;28;20209;-67
2021/03/11 02:34:25;;;;;;;5.28;1.15;;;;;;;30.92;26.86;97657.38;5011436;28;20664;-68
2021/03/11 02:36:56;;;;;;;4.55;1.20;;;;;;;30.31;27.36;97648.59;5010973;28;20211;-66
2021/03/11 02:39:25;;;;;;;1.15;1.05;;;;;;;29.91;28.09;97638.41;5011753;28;20544;-68
2021/03/11 02:41:54;;;;;;;8.35;1.27;;;;;;;31.20;26.66;97640.50;5011022;28;20212;-66
2021/03/11 02:44:23;;;;;;;1.67;0.95;;;;;;;30.35;27.26;97639.00;5011195;28;20316;-68
2021/03/11 02:46:51;;;;;;;1.30;1.10;;;;;;;29.92;28.05;97629.28;5011484;28;20189;-67
2021/03/11 02:49:19;;;;;;;2.65;1.15;;;;;;;31.15;26.02;97632.28;5011730;28;20311;-67
2021/03/11 02:51:46;;;;;;;1.80;1.00;;;;;;;30.53;27.14;97638.13;5011431;28;20320;-68
2021/03/11 02:54:13;;;;;;;1.80;0.93;;;;;;;29.99;27.82;97621.91;5011232;28;20307;-66
2021/03/11 02:56:40;;;;;;;2.50;0.98;;;;;;;30.58;27.05;97622.88;5011441;28;20215;-68
2021/03/11 02:59:09;;;;;;;2.47;1.10;;;;;;;31.84;25.40;97612.59;5011517;28;20647;-68
2021/03/11 03:01:38;;;;;;;3.47;1.20;;;;;;;30.42;27.51;97602.81;5011634;28;20295;-68
2021/03/11 03:04:06;;;;;;;2.35;1.00;;;;;;;29.93;27.92;97603.94;5011421;28;20307;-68
2021/03/11 03:06:34;;;;;;;3.15;1.20;;;;;;;31.25;26.08;97599.28;5011793;28;20291;-68
2021/03/11 03:09:00;;;;;;;3.65;0.95;;;;;;;30.42;27.17;97596.59;5011524;28;20293;-68
2021/03/11 03:11:27;;;;;;;2.50;0.90;;;;;;;30.02;27.88;97592.63;5011304;28;20703;-68
2021/03/11 03:13:54;;;;;;;3.78;0.98;;;;;;;31.40;26.42;97580.66;5011610;28;20376;-68
2021/03/11 03:16:21;;;;;;;3.67;1.20;;;;;;;30.67;26.84;97585.56;5011748;28;20220;-68
2021/03/11 03:18:49;;;;;;;4.72;1.00;;;;;;;30.18;27.62;97574.97;5011404;28;20761;-67
2021/03/11 03:21:16;;;;;;;1.73;1.02;;;;;;;30.54;27.06;97577.72;5011233;28;20271;-68
2021/03/11 03:23:43;;;;;;;2.50;0.70;;;;;;;30.99;26.70;97564.47;5011129;28;20212;-67
2021/03/11 03:26:09;;;;;;;2.30;1.10;;;;;;;30.38;27.67;97563.06;5011393;28;20296;-67
2021/03/11 03:28:36;;;;;;;2.42;0.95;;;;;;;30.08;27.72;97556.66;5011570;28;20209;-68
2021/03/11 03:31:02;;;;;;;1.48;0.90;;;;;;;31.32;26.36;97552.16;5011193;28;20741;-67
2021/03/11 03:33:29;;;;;;;2.65;0.98;;;;;;;30.53;27.05;97565.31;5011477;28;20300;-68
2021/03/11 03:35:55;;;;;;;1.42;1.00;;;;;;;30.06;27.69;97552.53;5011706;28;20319;-68
2021/03/11 03:38:22;;;;;;;2.20;1.10;;;;;;;31.40;25.85;97547.44;5013297;28;20311;-68
2021/03/11 03:40:48;;;;;;;2.45;1.02;;;;;;;30.77;26.81;97555.31;5014844;28;20332;-68
2021/03/11 03:43:18;;;;;;;1.70;1.00;;;;;;;30.05;27.89;97546.34;5014672;28;20236;-68
2021/03/11 03:45:50;;;;;;;2.85;1.00;;;;;;;31.07;27.17;97532.75;5014450;28;20315;-68
2021/03/11 03:48:22;;;;;;;1.30;0.80;;;;;;;30.93;26.51;97542.97;5014910;28;20277;-67
2021/03/11 03:50:49;;;;;;;1.42;0.70;;;;;;;30.16;27.66;97533.09;5014949;28;20272;-68
2021/03/11 03:53:21;;;;;;;1.95;1.00;;;;;;;30.28;27.59;97531.25;5015120;28;20300;-68
2021/03/11 03:55:50;;;;;;;1.55;1.00;;;;;;;31.47;26.15;97527.31;5014435;28;20228;-68
2021/03/11 03:58:18;;;;;;;1.25;0.88;;;;;;;30.62;26.79;97537.72;5015229;28;20266;-68
2021/03/11 04:00:44;;;;;;;3.38;0.95;;;;;;;29.99;27.88;97527.56;5014830;28;20311;-68
2021/03/11 04:03:11;;;;;;;2.10;0.90;;;;;;;31.72;25.53;97521.56;5014425;28;20299;-68
2021/03/11 04:05:38;;;;;;;2.25;0.90;;;;;;;30.73;26.89;97519.88;5014642;28;20284;-67
2021/03/11 04:08:06;;;;;;;2.83;1.17;;;;;;;30.32;27.41;97537.00;5014667;28;20211;-68
2021/03/11 04:10:33;;;;;;;2.95;1.13;;;;;;;31.35;25.79;97535.47;5014893;28;20200;-68
2021/03/11 04:13:00;;;;;;;1.30;1.00;;;;;;;30.52;27.28;97540.19;5013931;28;20790;-68
2021/03/11 04:15:27;;;;;;;2.50;1.00;;;;;;;30.15;27.46;97529.59;5014090;28;20688;-65
2021/03/11 04:17:54;;;;;;;2.03;1.02;;;;;;;30.89;26.64;97525.59;5013987;28;20655;-67
2021/03/11 04:20:21;;;;;;;2.83;1.02;;;;;;;30.90;26.58;97528.06;5013336;28;20320;-68
2021/03/11 04:22:47;;;;;;;2.50;1.05;;;;;;;30.29;27.26;97526.66;5013430;28;20555;-68
2021/03/11 04:25:14;;;;;;;1.77;1.00;;;;;;;29.83;27.82;97511.03;5014108;28;20662;-67
2021/03/11 04:27:41;;;;;;;2.53;1.13;;;;;;;31.24;26.12;97506.63;5013972;28;20286;-68
2021/03/11 04:30:08;;;;;;;1.50;0.90;;;;;;;30.36;27.33;97506.66;5013279;28;20197;-68
2021/03/11 04:32:35;;;;;;;1.63;0.90;;;;;;;29.76;28.12;97512.16;5013328;28;20292;-68
2021/03/11 04:35:02;;;;;;;1.38;0.98;;;;;;;30.01;27.59;97504.75;5013356;28;20315;-68
2021/03/11 04:37:28;;;;;;;1.55;0.90;;;;;;;31.25;26.93;97502.88;5013264;28;20248;-68
2021/03/11 04:39:54;;;;;;;1.83;0.80;;;;;;;31.94;26.17;97507.34;5013028;28;20327;-68
2021/03/11 04:42:21;;;;;;;1.83;0.90;;;;;;;30.69;27.29;97493.59;5013134;28;20292;-68
2021/03/11 04:44:48;;;;;;;1.67;0.90;;;;;;;30.31;27.50;97508.38;5012962;28;20403;-68
2021/03/11 04:47:15;;;;;;;3.60;0.80;;;;;;;31.81;26.88;97504.97;5013252;28;20295;-68
2021/03/11 04:49:42;;;;;;;1.75;0.95;;;;;;;30.95;27.62;97512.00;5011967;28;20287;-68
2021/03/11 04:52:09;;;;;;;5.70;1.25;;;;;;;30.23;28.22;97507.69;5012852;28;20276;-68
2021/03/11 04:54:35;;;;;;;3.90;1.00;;;;;;;29.85;28.79;97513.50;5012654;28;20281;-66
2021/03/11 04:57:02;;;;;;;4.90;1.48;;;;;;;31.32;27.25;97508.94;5013032;28;20296;-68
2021/03/11 04:59:28;;;;;;;3.65;1.10;;;;;;;32.08;26.40;97513.28;5013125;28;20607;-68
2021/03/11 05:01:58;;;;;;;6.28;1.20;;;;;;;30.78;27.26;97514.59;5012744;28;20299;-68
2021/03/11 05:04:26;;;;;;;2.67;0.98;;;;;;;30.36;28.31;97505.78;5012664;28;20322;-68
2021/03/11 05:06:52;;;;;;;1.60;0.90;;;;;;;31.20;26.72;97500.06;5012315;28;20236;-67
2021/03/11 05:09:18;;;;;;;2.83;0.88;;;;;;;31.31;26.45;97503.78;5012290;28;20295;-68
2021/03/11 05:11:45;;;;;;;4.90;1.08;;;;;;;30.51;28.08;97508.88;5012834;28;20362;-68
2021/03/11 05:14:11;;;;;;;2.38;1.10;;;;;;;30.19;28.23;97511.88;5013057;28;20311;-68
2021/03/11 05:16:37;;;;;;;1.90;0.82;;;;;;;31.95;26.18;97503.59;5012961;28;20204;-68
2021/03/11 05:19:05;;;;;;;1.50;0.82;;;;;;;31.09;27.78;97506.31;5012822;28;20209;-68
2021/03/11 05:21:31;;;;;;;2.58;0.85;;;;;;;30.60;27.88;97507.47;5012918;28;20311;-67
2021/03/11 05:23:57;;;;;;;3.17;0.98;;;;;;;30.35;28.16;97512.25;5012285;28;20736;-67
2021/03/11 05:26:23;;;;;;;1.80;0.88;;;;;;;32.02;26.77;97496.13;5012294;28;20395;-66
2021/03/11 05:28:49;;;;;;;5.75;0.85;;;;;;;30.76;27.25;97495.13;5012734;28;20308;-67
2021/03/11 05:31:15;;;;;;;3.88;0.90;;;;;;;30.30;28.25;97512.16;5012507;28;20287;-67
2021/03/11 05:33:41;;;;;;;3.03;1.15;;;;;;;30.28;28.34;97493.50;5012982;28;20209;-68
2021/03/11 05:36:08;;;;;;;2.42;1.10;;;;;;;31.05;27.15;97495.19;5012501;28;20221;-68
2021/03/11 05:38:35;;;;;;;1.65;0.60;;;;;;;32.27;26.50;97495.72;5012476;28;20311;-68
2021/03/11 05:41:02;;;;;;;2.60;1.10;;;;;;;31.32;26.64;97498.13;5012676;28;20254;-68
2021/03/11 05:43:29;;;;;;;6.22;1.00;;;;;;;30.76;27.57;97505.06;5012511;28;20208;-68
2021/03/11 05:45:56;;;;;;;2.78;0.85;;;;;;;30.39;28.14;97506.19;5012429;28;20321;-68
2021/03/11 05:48:26;;;;;;;1.48;0.80;;;;;;;31.76;26.50;97502.16;5012275;28;20213;-68
2021/03/11 05:50:52;;;;;;;1.48;0.70;;;;;;;31.71;26.63;97505.63;5012700;28;20268;-68
2021/03/11 05:53:21;;;;;;;2.05;0.90;;;;;;;30.96;27.38;97510.94;5012806;28;20205;-68
2021/03/11 05:55:47;;;;;;;2.60;0.93;;;;;;;30.38;27.92;97507.25;5012689;28;20284;-67
2021/03/11 05:58:13;;;;;;;3.58;0.85;;;;;;;31.90;25.74;97514.31;5012235;28;20770;-66
2021/03/11 06:00:39;;;;;;;3.10;0.80;;;;;;;31.80;26.58;97497.94;5012242;28;20278;-68
2021/03/11 06:03:07;;;;;;;2.90;0.98;;;;;;;31.01;27.56;97490.50;5012683;28;20261;-68
2021/03/11 06:05:33;;;;;;;2.22;0.90;;;;;;;30.68;27.26;97483.84;5012421;28;20224;-67
2021/03/11 06:08:00;;;;;;;0.77;0.70;;;;;;;31.91;25.62;97488.94;5012030;28;20243;-68
2021/03/11 06:10:28;;;;;;;2.85;0.80;;;;;;;32.18;25.57;97486.41;5011989;28;20419;-67
2021/03/11 06:12:56;;;;;;;1.48;0.73;;;;;;;31.22;26.27;97468.25;5012236;28;20394;-68
2021/03/11 06:15:28;;;;;;;4.45;0.80;;;;;;;30.89;26.55;97475.13;5012384;28;20297;-68
2021/03/11 06:17:56;;;;;;;1.70;0.80;;;;;;;31.85;25.27;97462.88;5012327;28;20601;-68
2021/03/11 06:20:22;;;;;;;2.47;1.05;;;;;;;32.21;24.71;97452.63;5012197;28;20231;-68
2021/03/11 06:22:48;;;;;;;3.53;0.70;;;;;;;31.29;26.57;97441.09;5011620;28;20303;-68
2021/03/11 06:25:16;;;;;;;1.55;0.95;;;;;;;30.85;26.79;97436.19;5011706;28;20228;-68
2021/03/11 06:27:45;;;;;;;5.40;1.20;;;;;;;31.81;26.58;97429.28;5011879;28;20640;-68
2021/03/11 06:30:29;;;;;;;22.88;3.25;;;;;;;32.20;26.22;97435.59;5012093;28;20287;-66
2021/03/11 06:32:56;;;;;;;18.60;3.00;;;;;;;31.18;27.58;97434.69;5011522;28;20280;-67
2021/03/11 06:35:23;;;;;;;17.52;2.67;;;;;;;30.68;27.99;97446.09;5010997;28;20311;-68
2021/03/11 06:37:50;;;;;;;13.43;2.65;;;;;;;30.15;28.55;97431.72;5011082;28;20290;-66
2021/03/11 06:40:17;;;;;;;10.82;2.08;;;;;;;31.51;26.36;97438.53;5011211;28;20391;-66
2021/03/11 06:42:45;;;;;;;10.82;1.65;;;;;;;32.28;25.11;97434.34;5011212;28;20239;-70
2021/03/11 06:45:25;;;;;;;9.27;1.92;;;;;;;31.03;27.22;97429.81;5013406;28;20807;-67
2021/03/11 06:47:53;;;;;;;11.38;1.88;;;;;;;30.41;27.75;97433.13;5015405;28;20323;-69
2021/03/11 06:50:23;;;;;;;12.48;1.63;;;;;;;30.78;27.53;97438.22;5011666;28;20200;-69
2021/03/11 06:53:02;;;;;;;4.95;1.52;;;;;;;32.62;25.38;97426.16;5011324;28;20656;-69
2021/03/11 06:55:29;;;;;;;8.60;1.88;;;;;;;31.30;26.39;97424.63;5011045;28;20690;-70
2021/03/11 06:57:56;;;;;;;9.63;1.92;;;;;;;30.89;27.32;97412.25;5010795;28;20706;-70
2021/03/11 07:00:24;;;;;;;11.30;2.10;;;;;;;31.14;26.89;97414.63;5010844;28;20762;-70
2021/03/11 07:02:51;;;;;;;13.75;1.85;;;;;;;32.67;25.05;97415.38;5011183;28;20208;-70
2021/03/11 07:05:19;;;;;;;9.07;1.90;;;;;;;31.65;25.54;97431.75;5010823;28;20367;-70
2021/03/11 07:07:46;;;;;;;9.65;2.47;;;;;;;31.09;26.87;97428.03;5010814;28;20372;-70
2021/03/11 07:10:26;;;;;;;15.75;2.33;;;;;;;31.39;27.58;97422.34;5011053;28;20291;-70
2021/03/11 07:12:54;;;;;;;10.00;2.20;;;;;;;32.93;25.13;97421.09;5012144;28;20233;-69
2021/03/11 07:15:23;;;;;;;16.48;2.20;;;;;;;31.71;26.50;97419.97;5014679;28;20334;-69
2021/03/11 07:17:51;;;;;;;11.00;2.22;;;;;;;31.03;27.32;97426.28;5014921;28;20223;-71
2021/03/11 07:20:19;;;;;;;11.75;1.80;;;;;;;31.53;27.66;97433.72;5014380;28;20233;-70
2021/03/11 07:23:03;;;;;;;7.65;1.70;;;;;;;32.65;26.25;97431.06;5014392;28;20208;-70
2021/03/11 07:25:32;;;;;;;13.82;1.83;;;;;;;31.51;26.83;97425.00;5014756;28;20255;-70
2021/03/11 07:27:59;;;;;;;18.27;2.15;;;;;;;31.27;27.02;97414.31;5014736;28;20217;-70
2021/03/11 07:30:27;;;;;;;7.38;2.15;;;;;;;32.40;25.97;97424.22;5014589;28;20196;-69
2021/03/11 07:32:58;;;;;;;9.10;1.75;;;;;;;32.53;25.18;97419.53;5014563;28;20239;-70
2021/03/11 07:35:26;;;;;;;19.67;2.15;;;;;;;31.25;26.93;97429.94;5014256;28;20263;-70
2021/03/11 07:37:56;;;;;;;7.65;1.38;;;;;;;29.87;28.35;97427.84;5014278;28;20201;-69
2021/03/11 07:40:23;;;;;;;5.35;1.45;;;;;;;29.95;28.55;97426.69;5015036;28;20321;-70
2021/03/11 07:42:50;;;;;;;5.82;1.50;;;;;;;30.83;27.42;97421.28;5014422;28;20303;-70
2021/03/11 07:45:17;;;;;;;9.20;1.48;;;;;;;32.29;25.49;97425.16;5014107;28;20240;-70
2021/03/11 07:47:45;;;;;;;7.05;1.60;;;;;;;33.03;24.94;97423.09;5014890;28;20259;-70
2021/03/11 07:50:13;;;;;;;6.03;1.88;;;;;;;33.00;24.30;97427.94;5014210;28;20399;-70
2021/03/11 07:52:39;;;;;;;4.90;1.38;;;;;;;31.98;26.17;97408.47;5014053;28;20208;-70
2021/03/11 07:55:07;;;;;;;4.18;1.05;;;;;;;31.53;26.23;97422.91;5014435;28;20703;-69
2021/03/11 07:57:39;;;;;;;5.07;1.40;;;;;;;32.50;25.41;97412.72;5013886;28;20205;-70
2021/03/11 08:00:07;;;;;;;3.60;1.35;;;;;;;32.99;25.21;97403.81;5013674;28;20628;-69
2021/03/11 08:02:36;;;;;;;5.07;1.88;;;;;;;31.92;25.24;97409.44;5013227;28;20240;-70
2021/03/11 08:05:04;;;;;;;3.13;1.15;;;;;;;31.38;26.34;97404.53;5014372;28;20221;-70
2021/03/11 08:07:31;;;;;;;6.18;1.33;;;;;;;30.93;27.20;97398.03;5014099;28;20298;-70
2021/03/11 08:09:59;;;;;;;8.05;1.15;;;;;;;30.50;27.99;97403.94;5014351;28;20204;-69
2021/03/11 08:12:31;;;;;;;3.83;1.20;;;;;;;30.94;27.38;97410.50;5014655;28;20212;-69
2021/03/11 08:14:59;;;;;;;6.78;1.48;;;;;;;31.59;26.81;97411.09;5013823;28;20241;-69
2021/03/11 08:17:42;;;;;;;7.45;1.40;;;;;;;32.26;26.13;97398.63;5013621;28;20219;-69
2021/03/11 08:20:37;;;;;;;10.32;1.25;;;;;;;33.12;25.65;97395.28;5014100;28;20263;-70
2021/03/11 08:23:13;;;;;;;9.05;1.35;;;;;;;33.45;24.05;97398.88;5013859;28;20213;-73
2021/03/11 08:25:47;;;;;;;4.93;1.20;;;;;;;33.15;25.55;97393.97;5013176;28;20235;-68
2021/03/11 08:28:36;;;;;;;5.90;1.08;;;;;;;31.91;26.81;97383.50;5013572;28;20600;-70
2021/03/11 08:31:04;;;;;;;5.18;1.52;;;;;;;31.89;26.59;97388.31;5013531;28;20236;-67
2021/03/11 08:33:54;;;;;;;4.43;1.30;;;;;;;33.02;25.02;97387.06;5013324;28;20215;-68
2021/03/11 08:36:38;;;;;;;7.22;1.13;;;;;;;32.60;24.86;97382.25;5014179;28;20286;-70
2021/03/11 08:39:32;;;;;;;4.25;1.00;;;;;;;31.88;25.87;97365.06;5013771;28;20663;-71
2021/03/11 08:42:00;;;;;;;7.32;1.30;;;;;;;31.47;26.82;97359.81;5013381;28;20301;-69
2021/03/11 08:44:45;;;;;;;3.15;0.93;;;;;;;31.89;26.44;97348.59;5014406;28;20343;-70
2021/03/11 08:47:13;;;;;;;2.70;0.98;;;;;;;32.52;26.39;97353.75;5013769;28;20193;-69
2021/03/11 08:49:42;;;;;;;2.63;0.90;;;;;;;33.09;24.95;97363.31;5013064;28;20263;-70
2021/03/11 08:52:49;;;;;;;2.45;1.10;;;;;;;33.38;24.63;97336.78;5013574;28;20240;-71
2021/03/11 08:55:37;;;;;;;4.03;0.82;;;;;;;32.52;26.17;97340.22;5008171;28;20221;-70
2021/03/11 08:58:04;;;;;;;2.05;1.00;;;;;;;31.61;27.21;97327.94;5013353;28;20668;-70
2021/03/11 09:00:56;;;;;;;11.23;1.40;;;;;;;31.70;27.10;97358.84;5012936;28;20320;-70
2021/03/11 09:03:39;;;;;;;5.93;1.10;;;;;;;33.12;24.74;97337.59;5012919;28;20216;-71
2021/03/11 09:06:06;;;;;;;3.10;1.17;;;;;;;32.52;25.44;97337.50;5012567;28;20260;-68
2021/03/11 09:08:34;;;;;;;3.40;0.98;;;;;;;31.86;26.35;97323.94;5012538;28;20691;-67
2021/03/11 09:11:08;;;;;;;3.33;1.00;;;;;;;31.42;26.78;97324.63;5013054;28;20205;-69
2021/03/11 09:13:35;;;;;;;8.05;0.98;;;;;;;32.98;25.90;97334.50;5012742;28;20208;-70
2021/03/11 09:16:01;;;;;;;2.88;1.05;;;;;;;32.84;24.74;97323.25;5012480;28;20256;-69
2021/03/11 09:18:28;;;;;;;4.20;0.93;;;;;;;31.68;26.46;97325.88;5013097;28;20260;-68
2021/03/11 09:20:55;;;;;;;1.73;0.93;;;;;;;31.38;27.08;97322.66;5012586;28;20559;-69
2021/03/11 09:23:34;;;;;;;2.38;0.90;;;;;;;32.02;26.59;97306.03;5012779;28;20204;-71
2021/03/11 09:26:00;;;;;;;4.95;1.20;;;;;;;32.69;26.11;97326.63;5012207;28;20595;-69
2021/03/11 09:28:26;;;;;;;5.53;1.23;;;;;;;33.13;25.30;97340.06;5012495;28;20240;-69
2021/03/11 09:30:53;;;;;;;2.35;0.75;;;;;;;32.08;26.06;97315.91;5012574;28;20548;-70
2021/03/11 09:33:21;;;;;;;3.08;1.13;;;;;;;31.24;27.25;97332.97;5012680;28;20254;-73
2021/03/11 09:35:47;;;;;;;3.03;1.10;;;;;;;31.29;27.07;97336.59;5011940;28;20277;-71
2021/03/11 09:38:19;;;;;;;5.65;1.00;;;;;;;32.15;25.92;97350.88;5011930;28;20726;-69
2021/03/11 09:40:47;;;;;;;4.47;1.10;;;;;;;33.35;24.46;97320.22;5013081;28;20239;-73
2021/03/11 09:43:20;;;;;;;32.15;1.40;;;;;;;31.93;26.31;97330.00;5012680;28;20224;-72
2021/03/11 09:45:49;;;;;;;5.95;0.88;;;;;;;31.11;27.87;97313.34;5012289;28;20259;-72
2021/03/11 09:48:18;;;;;;;2.38;1.00;;;;;;;31.95;26.98;97311.63;5012265;28;20255;-71
2021/03/11 09:50:56;;;;;;;3.30;0.90;;;;;;;33.27;25.02;97315.28;5011760;28;20267;-73
2021/03/11 09:53:24;;;;;;;9.13;1.00;;;;;;;31.83;27.24;97310.94;5011863;28;20214;-71
2021/03/11 09:55:55;;;;;;;6.05;1.08;;;;;;;31.31;27.19;97309.31;5011832;28;20592;-70
2021/03/11 09:58:22;;;;;;;5.82;0.95;;;;;;;31.66;27.30;97297.44;5011761;28;20256;-70
2021/03/11 10:00:49;;;;;;;10.07;1.20;;;;;;;32.80;25.61;97305.91;5011845;28;20252;-70
2021/03/11 10:03:27;;;;;;;16.45;1.48;;;;;;;31.75;27.57;97311.38;5011798;28;20668;-70
2021/03/11 10:05:56;;;;;;;2.65;0.80;;;;;;;31.04;27.72;97301.06;5011933;28;20232;-70
2021/03/11 10:08:34;;;;;;;5.97;0.90;;;;;;;32.44;25.83;97292.81;5012045;28;20200;-71
2021/03/11 10:11:11;;;;;;;6.30;1.20;;;;;;;32.56;25.06;97284.53;5012017;28;20204;-70
2021/03/11 10:13:46;;;;;;;16.35;1.58;;;;;;;31.57;26.69;97275.44;5011605;28;20204;-69
2021/03/11 10:16:12;;;;;;;7.97;1.77;;;;;;;31.29;29.12;97277.19;5011623;28;20310;-71
2021/03/11 10:18:59;;;;;;;16.40;1.17;;;;;;;32.46;28.58;97279.03;5011584;28;20279;-70
2021/03/11 10:21:26;;;;;;;3.67;1.05;;;;;;;31.79;28.73;97293.56;5011837;28;20306;-71
2021/03/11 10:23:52;;;;;;;7.07;1.38;;;;;;;30.94;29.27;97282.78;5011491;28;20331;-70
2021/03/11 10:26:22;;;;;;;5.10;0.93;;;;;;;30.74;30.01;97292.19;5011186;28;20209;-71
2021/03/11 10:28:51;;;;;;;6.65;0.80;;;;;;;33.26;27.22;97310.94;5011350;28;20204;-71
2021/03/11 10:31:17;;;;;;;9.10;1.10;;;;;;;31.89;27.89;97289.13;5011232;28;20303;-72
2021/03/11 10:33:44;;;;;;;2.30;0.93;;;;;;;31.37;29.65;97289.44;5011669;28;20215;-75
2021/03/11 10:36:16;;;;;;;2.05;0.70;;;;;;;32.09;28.40;97285.91;5011503;28;20243;-72
2021/03/11 10:38:43;;;;;;;2.83;0.80;;;;;;;31.55;28.99;97291.09;5011358;28;20663;-72
2021/03/11 10:41:15;;;;;;;3.35;0.70;;;;;;;30.88;30.19;97298.06;5011456;28;20235;-72
2021/03/11 10:43:43;;;;;;;2.03;0.88;;;;;;;30.94;30.78;97291.75;5011760;28;20200;-73
2021/03/11 10:46:15;;;;;;;3.08;0.90;;;;;;;31.83;29.10;97290.13;5011099;28;20748;-71
2021/03/11 10:48:52;;;;;;;7.68;0.70;;;;;;;31.11;29.70;97277.41;5014236;28;20599;-71
2021/03/11 10:51:21;;;;;;;4.97;0.73;;;;;;;30.64;30.40;97291.97;5015733;28;20243;-70
2021/03/11 10:53:47;;;;;;;4.88;0.70;;;;;;;31.60;29.21;97277.66;5014894;28;20212;-72
2021/03/11 10:56:14;;;;;;;4.95;0.80;;;;;;;30.96;29.97;97297.72;5015194;28;20256;-70
2021/03/11 10:58:41;;;;;;;1.83;0.65;;;;;;;30.65;30.53;97288.22;5016092;28;20200;-68
2021/03/11 11:01:09;;;;;;;3.08;0.80;;;;;;;32.11;28.18;97301.88;5014609;28;20232;-70
2021/03/11 11:03:36;;;;;;;3.45;0.82;;;;;;;32.17;27.61;97294.63;5015095;28;20314;-71
2021/03/11 11:06:04;;;;;;;1.95;0.40;;;;;;;30.92;29.85;97307.31;5015251;28;20275;-71
2021/03/11 11:08:31;;;;;;;1.08;0.80;;;;;;;30.37;30.80;97314.13;5015410;28;20274;-70
2021/03/11 11:10:57;;;;;;;4.43;0.95;;;;;;;33.18;27.10;97317.66;5015187;28;20628;-70
2021/03/11 11:13:23;;;;;;;1.52;0.70;;;;;;;32.04;27.53;97320.97;5015209;28;20239;-70
2021/03/11 11:15:50;;;;;;;3.22;0.75;;;;;;;31.14;29.13;97322.81;5014930;28;20560;-69
2021/03/11 11:18:17;;;;;;;0.77;0.65;;;;;;;31.26;29.32;97310.06;5014890;28;20648;-70
2021/03/11 11:20:43;;;;;;;5.03;0.70;;;;;;;32.66;25.13;97321.75;5014961;28;20564;-71
2021/03/11 11:23:10;;;;;;;6.25;1.63;;;;;;;30.87;28.04;97330.69;5014655;28;20247;-72
2021/03/11 11:25:36;;;;;;;2.55;0.75;;;;;;;30.00;29.28;97321.69;5014666;28;20221;-72
2021/03/11 11:28:02;;;;;;;5.10;0.90;;;;;;;29.33;30.14;97325.56;5014464;28;20428;-73
2021/03/11 11:30:29;;;;;;;2.15;0.80;;;;;;;30.18;29.61;97326.94;5014460;28;20232;-69
2021/03/11 11:32:55;;;;;;;5.32;1.33;;;;;;;31.39;28.04;97324.31;5014360;28;20690;-70
2021/03/11 11:35:23;;;;;;;3.42;0.85;;;;;;;32.38;26.68;97325.47;5014299;28;20722;-69
2021/03/11 11:37:50;;;;;;;2.58;0.90;;;;;;;32.44;26.12;97317.16;5014192;28;20259;-69
2021/03/11 11:40:17;;;;;;;2.55;0.80;;;;;;;31.64;26.71;97318.50;5014886;28;20240;-67